createdAt,value
2019-05-05T00:02:05.106Z,66.80
2019-05-05T00:04:35.467Z,66.90
2019-05-05T00:07:04.482Z,67.40
2019-05-05T00:09:34.745Z,68.00
2019-05-05T00:12:08.055Z,68.00
2019-05-05T00:14:38.673Z,67.20
2019-05-05T00:17:14.794Z,66.40
2019-05-05T00:19:45.453Z,65.90
2019-05-05T00:22:15.180Z,65.90
2019-05-05T00:24:44.453Z,65.50
2019-05-05T00:27:15.119Z,65.80
2019-05-05T00:29:45.365Z,66.10
2019-05-05T00:32:15.282Z,66.20
2019-05-05T00:34:44.552Z,66.20
2019-05-05T00:37:15.213Z,66.80
2019-05-05T00:39:45.177Z,65.80
2019-05-05T00:42:15.375Z,65.60
2019-05-05T00:44:44.772Z,65.70
2019-05-05T00:47:21.569Z,65.80
2019-05-05T00:49:51.923Z,66.20
2019-05-05T00:52:20.657Z,66.10
2019-05-05T00:54:49.588Z,65.80
2019-05-05T00:57:18.556Z,66.50
2019-05-05T00:59:47.278Z,66.40
2019-05-05T01:02:29.814Z,66.80
2019-05-05T01:05:16.921Z,66.70
2019-05-05T01:07:45.821Z,66.90
2019-05-05T01:10:14.644Z,66.80
2019-05-05T01:12:45.037Z,66.80
2019-05-05T01:15:15.021Z,67.40
2019-05-05T01:17:45.102Z,67.60
2019-05-05T01:20:14.728Z,67.60
2019-05-05T01:22:44.850Z,67.50
2019-05-05T01:25:14.895Z,68.60
2019-05-05T01:27:45.272Z,68.90
2019-05-05T01:30:18.263Z,68.50
2019-05-05T01:32:57.383Z,68.40
2019-05-05T01:35:26.180Z,68.30
2019-05-05T01:37:59.324Z,68.50
2019-05-05T01:40:32.706Z,68.20
2019-05-05T01:43:01.815Z,67.60
2019-05-05T01:45:30.887Z,68.70
2019-05-05T01:47:59.697Z,68.70
2019-05-05T01:50:28.611Z,68.70
2019-05-05T01:52:57.360Z,68.70
2019-05-05T01:55:26.475Z,68.60
2019-05-05T01:57:55.388Z,69.10
2019-05-05T02:00:25.387Z,68.30
2019-05-05T02:02:55.378Z,68.00
2019-05-05T02:05:24.632Z,68.70
2019-05-05T02:07:55.151Z,68.30
2019-05-05T02:10:25.423Z,68.10
2019-05-05T02:12:55.128Z,68.50
2019-05-05T02:15:25.053Z,68.70
2019-05-05T02:17:55.048Z,68.60
2019-05-05T02:20:41.383Z,69.40
2019-05-05T02:23:11.804Z,69.30
2019-05-05T02:25:40.811Z,69.60
2019-05-05T02:28:09.792Z,69.60
2019-05-05T02:30:40.386Z,69.50
2019-05-05T02:33:15.724Z,70.20
2019-05-05T02:35:45.894Z,69.70
2019-05-05T02:38:15.713Z,69.40
2019-05-05T02:40:46.622Z,69.60
2019-05-05T02:43:17.169Z,69.70
2019-05-05T02:45:50.704Z,69.90
2019-05-05T02:48:20.685Z,69.80
2019-05-05T02:51:00.249Z,69.80
2019-05-05T02:53:25.872Z,69.80
2019-05-05T02:55:58.718Z,69.40
2019-05-05T02:58:28.689Z,69.50
2019-05-05T03:01:09.955Z,69.60
2019-05-05T03:03:39.883Z,69.70
2019-05-05T03:06:08.618Z,69.80
2019-05-05T03:08:39.935Z,69.70
2019-05-05T03:11:10.300Z,69.50
2019-05-05T03:13:41.033Z,69.40
2019-05-05T03:16:20.779Z,69.60
2019-05-05T03:18:57.787Z,69.40
2019-05-05T03:21:46.587Z,69.10
2019-05-05T03:24:15.516Z,68.90
2019-05-05T03:26:47.711Z,68.90
2019-05-05T03:29:20.974Z,68.90
2019-05-05T03:31:51.026Z,69.80
2019-05-05T03:34:20.580Z,69.40
2019-05-05T03:36:49.646Z,69.30
2019-05-05T03:39:20.380Z,69.30
2019-05-05T03:41:56.743Z,70.00
2019-05-05T03:44:27.307Z,70.20
2019-05-05T03:46:56.851Z,70.10
2019-05-05T03:49:26.015Z,70.00
2019-05-05T03:51:55.319Z,70.10
2019-05-05T03:54:24.261Z,70.20
2019-05-05T03:57:08.822Z,70.70
2019-05-05T03:59:39.660Z,70.80
2019-05-05T04:02:19.760Z,70.80
2019-05-05T04:04:54.988Z,70.90
2019-05-05T04:07:24.220Z,71.00
2019-05-05T04:09:54.252Z,70.90
2019-05-05T04:12:24.177Z,71.20
2019-05-05T04:14:54.558Z,71.60
2019-05-05T04:17:27.993Z,71.90
2019-05-05T04:20:15.272Z,72.00
2019-05-05T04:22:44.068Z,72.40
2019-05-05T04:25:13.906Z,72.70
2019-05-05T04:27:44.572Z,72.80
2019-05-05T04:30:14.260Z,72.90
2019-05-05T04:32:43.923Z,73.10
2019-05-05T04:35:14.118Z,73.30
2019-05-05T04:37:43.710Z,73.90
2019-05-05T04:40:14.720Z,73.80
2019-05-05T04:42:44.080Z,74.20
2019-05-05T04:45:14.758Z,73.80
2019-05-05T04:47:54.465Z,74.00
2019-05-05T04:50:36.896Z,73.70
2019-05-05T04:53:07.517Z,73.70
2019-05-05T04:55:36.280Z,73.40
2019-05-05T04:58:05.011Z,73.00
2019-05-05T05:00:34.249Z,73.00
2019-05-05T05:03:04.814Z,72.80
2019-05-05T05:05:44.357Z,72.70
2019-05-05T05:08:13.922Z,72.60
2019-05-05T05:10:43.788Z,72.90
2019-05-05T05:13:13.880Z,72.30
2019-05-05T05:15:44.477Z,71.70
2019-05-05T05:18:18.812Z,71.90
2019-05-05T05:20:47.551Z,71.60
2019-05-05T05:23:16.293Z,71.70
2019-05-05T05:25:45.299Z,71.60
2019-05-05T05:28:14.493Z,70.70
2019-05-05T05:30:43.940Z,69.80
2019-05-05T05:33:14.846Z,69.80
2019-05-05T05:35:44.121Z,69.30
2019-05-05T05:38:14.049Z,69.30
2019-05-05T05:40:47.463Z,69.00
2019-05-05T05:43:17.860Z,69.00
2019-05-05T05:45:48.362Z,69.00
2019-05-05T05:48:34.175Z,65.50
2019-05-05T05:51:04.845Z,65.60
2019-05-05T05:53:34.944Z,65.70
2019-05-05T05:56:04.399Z,65.90
2019-05-05T05:58:33.820Z,65.70
2019-05-05T06:01:04.318Z,64.70
2019-05-05T06:03:33.933Z,64.20
2019-05-05T06:06:04.754Z,63.80
2019-05-05T06:08:34.671Z,62.90
2019-05-05T06:11:04.444Z,62.70
2019-05-05T06:13:33.768Z,63.60
2019-05-05T06:16:04.264Z,63.00
2019-05-05T06:18:34.508Z,61.70
2019-05-05T06:21:04.493Z,62.00
2019-05-05T06:23:34.472Z,61.30
2019-05-05T06:26:06.676Z,60.80
2019-05-05T06:28:34.346Z,60.10
2019-05-05T06:31:06.052Z,61.40
2019-05-05T06:33:34.952Z,61.10
2019-05-05T06:36:03.932Z,61.30
2019-05-05T06:38:34.554Z,61.70
2019-05-05T06:41:21.300Z,59.90
2019-05-05T06:44:08.466Z,58.90
2019-05-05T06:46:44.877Z,59.80
2019-05-05T06:49:13.799Z,58.90
2019-05-05T06:51:44.054Z,59.00
2019-05-05T06:54:13.750Z,59.00
2019-05-05T06:56:44.503Z,58.50
2019-05-05T06:59:13.687Z,59.30
2019-05-05T07:01:44.246Z,59.40
2019-05-05T07:04:13.996Z,59.50
2019-05-05T07:06:53.450Z,59.40
2019-05-05T07:09:13.866Z,59.00
2019-05-05T07:11:43.640Z,57.70
2019-05-05T07:14:14.274Z,57.70
2019-05-05T07:16:43.848Z,58.50
2019-05-05T07:19:14.674Z,58.30
2019-05-05T07:21:43.701Z,58.70
2019-05-05T07:24:14.392Z,58.30
2019-05-05T07:26:44.664Z,58.50
2019-05-05T07:29:16.327Z,57.20
2019-05-05T07:31:44.323Z,56.10
2019-05-05T07:34:14.643Z,55.30
2019-05-05T07:36:47.374Z,56.00
2019-05-05T07:39:16.191Z,57.10
2019-05-05T07:41:44.994Z,56.80
2019-05-05T07:44:25.913Z,56.30
2019-05-05T07:46:44.407Z,56.00
2019-05-05T07:49:14.016Z,56.40
2019-05-05T07:51:44.186Z,55.00
2019-05-05T07:54:14.513Z,54.20
2019-05-05T07:56:44.370Z,54.60
2019-05-05T07:59:14.573Z,55.00
2019-05-05T08:01:46.559Z,55.30
2019-05-05T08:04:14.127Z,54.60
2019-05-05T08:06:44.554Z,53.10
2019-05-05T08:09:14.623Z,54.30
2019-05-05T08:11:43.649Z,53.70
2019-05-05T08:14:14.406Z,53.60
2019-05-05T08:16:50.457Z,53.10
2019-05-05T08:19:20.852Z,52.90
2019-05-05T08:21:49.601Z,50.70
2019-05-05T08:24:25.939Z,50.70
2019-05-05T08:27:04.379Z,50.10
2019-05-05T08:29:37.188Z,49.90
2019-05-05T08:32:16.394Z,50.60
2019-05-05T08:34:56.877Z,49.90
2019-05-05T08:37:15.735Z,50.60
2019-05-05T08:39:44.746Z,50.70
2019-05-05T08:42:14.429Z,51.10
2019-05-05T08:44:44.709Z,51.40
2019-05-05T08:47:13.945Z,50.70
2019-05-05T08:49:44.283Z,50.80
2019-05-05T08:52:14.499Z,50.90
2019-05-05T08:54:44.662Z,49.90
2019-05-05T08:57:14.651Z,49.90
2019-05-05T08:59:44.016Z,49.30
2019-05-05T09:02:14.754Z,49.80
2019-05-05T09:04:44.699Z,49.10
2019-05-05T09:07:13.863Z,49.20
2019-05-05T09:09:44.185Z,50.20
2019-05-05T09:12:13.983Z,50.90
2019-05-05T09:14:44.776Z,49.80
2019-05-05T09:17:13.774Z,49.10
2019-05-05T09:19:44.720Z,48.60
2019-05-05T09:22:13.963Z,49.60
2019-05-05T09:24:47.205Z,49.60
2019-05-05T09:27:17.614Z,49.50
2019-05-05T09:29:46.708Z,48.60
2019-05-05T09:32:16.125Z,49.80
2019-05-05T09:34:44.922Z,48.20
2019-05-05T09:37:14.335Z,47.30
2019-05-05T09:39:43.823Z,48.70
2019-05-05T09:42:14.543Z,48.80
2019-05-05T09:44:43.799Z,47.80
2019-05-05T09:47:13.718Z,45.90
2019-05-05T09:49:44.613Z,46.60
2019-05-05T09:52:13.953Z,44.20
2019-05-05T09:54:43.859Z,45.80
2019-05-05T09:57:14.529Z,46.20
2019-05-05T09:59:44.195Z,45.80
2019-05-05T10:02:13.441Z,46.30
2019-05-05T10:04:43.909Z,45.40
2019-05-05T10:07:13.745Z,44.30
2019-05-05T10:09:43.789Z,45.10
2019-05-05T10:12:12.675Z,45.20
2019-05-05T10:14:41.333Z,41.70
2019-05-05T10:17:10.197Z,41.60
2019-05-05T10:19:39.029Z,42.80
2019-05-05T10:22:07.838Z,40.40
2019-05-05T10:24:38.415Z,41.80
2019-05-05T10:27:07.225Z,41.30
2019-05-05T10:29:35.963Z,43.10
2019-05-05T10:32:05.073Z,42.50
2019-05-05T10:34:33.904Z,42.20
2019-05-05T10:37:05.338Z,39.90
2019-05-05T10:39:35.816Z,40.00
2019-05-05T10:42:04.577Z,38.70
2019-05-05T10:44:34.070Z,39.90
2019-05-05T10:47:04.609Z,41.10
2019-05-05T10:49:33.832Z,42.90
2019-05-05T10:52:03.703Z,40.70
2019-05-05T10:54:43.348Z,39.80
2019-05-05T10:57:04.026Z,40.70
2019-05-05T10:59:34.367Z,41.90
2019-05-05T11:02:04.984Z,39.60
2019-05-05T11:04:33.906Z,37.90
2019-05-05T11:07:04.231Z,38.00
2019-05-05T11:09:34.248Z,38.00
2019-05-05T11:12:03.128Z,40.70
2019-05-05T11:14:33.519Z,39.70
2019-05-05T11:17:04.174Z,39.60
2019-05-05T11:19:33.650Z,40.50
2019-05-05T11:22:02.572Z,40.10
2019-05-05T11:24:31.662Z,37.60
2019-05-05T11:27:00.568Z,36.90
2019-05-05T11:29:29.408Z,34.90
2019-05-05T11:31:59.982Z,35.50
2019-05-05T11:34:29.404Z,35.40
2019-05-05T11:36:59.757Z,33.60
2019-05-05T11:39:29.023Z,34.70
2019-05-05T11:41:57.744Z,34.50
2019-05-05T11:44:26.507Z,36.50
2019-05-05T11:46:55.496Z,36.60
2019-05-05T11:49:24.618Z,36.20
2019-05-05T11:51:54.189Z,38.10
2019-05-05T11:54:24.614Z,39.40
2019-05-05T11:56:54.047Z,38.70
2019-05-05T11:59:23.742Z,37.70
2019-05-05T12:01:55.053Z,38.10
2019-05-05T12:04:24.104Z,35.80
2019-05-05T12:06:52.834Z,35.30
2019-05-05T12:09:24.725Z,35.00
2019-05-05T12:11:54.524Z,35.40
2019-05-05T12:14:27.238Z,34.20
2019-05-05T12:16:55.585Z,37.40
2019-05-05T12:19:24.558Z,36.50
2019-05-05T12:21:54.819Z,35.60
2019-05-05T12:24:25.483Z,36.50
2019-05-05T12:27:05.016Z,35.90
2019-05-05T12:29:35.245Z,35.20
2019-05-05T12:32:04.060Z,36.50
2019-05-05T12:34:34.100Z,35.30
2019-05-05T12:37:05.172Z,36.30
2019-05-05T12:39:33.641Z,34.40
2019-05-05T12:42:04.848Z,36.40
2019-05-05T12:44:34.869Z,35.00
2019-05-05T12:47:11.175Z,34.70
2019-05-05T12:49:39.909Z,35.90
2019-05-05T12:52:08.727Z,34.90
2019-05-05T12:54:37.703Z,35.20
2019-05-05T12:57:06.472Z,33.00
2019-05-05T12:59:35.290Z,30.80
2019-05-05T13:02:04.546Z,29.90
2019-05-05T13:04:34.022Z,33.60
2019-05-05T13:07:04.905Z,33.60
2019-05-05T13:09:33.594Z,31.70
2019-05-05T13:12:04.515Z,31.20
2019-05-05T13:14:33.668Z,31.50
2019-05-05T13:17:03.627Z,29.70
2019-05-05T13:19:40.146Z,29.10
2019-05-05T13:22:25.361Z,30.00
2019-05-05T13:25:00.421Z,31.20
2019-05-05T13:27:31.053Z,32.20
2019-05-05T13:29:59.827Z,33.90
2019-05-05T13:32:28.754Z,35.50
2019-05-05T13:34:57.501Z,34.10
2019-05-05T13:37:26.339Z,34.20
2019-05-05T13:39:55.323Z,34.80
2019-05-05T13:42:24.460Z,34.10
2019-05-05T13:44:58.046Z,32.30
2019-05-05T13:47:26.808Z,31.70
2019-05-05T13:49:57.170Z,32.90
2019-05-05T13:52:26.273Z,33.00
2019-05-05T13:54:55.065Z,32.00
2019-05-05T13:57:24.578Z,33.40
2019-05-05T13:59:54.566Z,33.00
2019-05-05T14:02:24.401Z,31.10
2019-05-05T14:04:54.217Z,31.20
2019-05-05T14:07:23.978Z,33.20
2019-05-05T14:09:54.755Z,31.20
2019-05-05T14:12:24.068Z,30.30
2019-05-05T14:14:54.624Z,30.80
2019-05-05T14:17:23.557Z,30.50
2019-05-05T14:20:04.068Z,30.70
2019-05-05T14:22:24.259Z,31.20
2019-05-05T14:24:57.961Z,31.30
2019-05-05T14:27:27.082Z,31.40
2019-05-05T14:29:57.475Z,31.30
2019-05-05T14:32:27.986Z,30.10
2019-05-05T14:35:01.312Z,31.10
2019-05-05T14:37:35.043Z,31.80
2019-05-05T14:40:05.906Z,31.50
2019-05-05T14:42:34.831Z,31.70
2019-05-05T14:45:05.136Z,30.70
2019-05-05T14:47:33.908Z,29.30
2019-05-05T14:50:04.538Z,29.30
2019-05-05T14:52:33.352Z,31.50
2019-05-05T14:55:03.888Z,33.60
2019-05-05T14:57:33.598Z,33.90
2019-05-05T15:00:04.762Z,32.90
2019-05-05T15:02:34.792Z,32.40
2019-05-05T15:05:22.112Z,32.10
2019-05-05T15:08:04.455Z,30.50
2019-05-05T15:10:47.073Z,31.80
2019-05-05T15:13:15.989Z,31.50
2019-05-05T15:15:44.809Z,31.80
2019-05-05T15:18:14.651Z,33.80
2019-05-05T15:20:44.146Z,31.70
2019-05-05T15:23:13.415Z,31.70
2019-05-05T15:25:44.542Z,34.70
2019-05-05T15:28:13.832Z,31.40
2019-05-05T15:30:44.092Z,32.80
2019-05-05T15:33:13.802Z,32.10
2019-05-05T15:35:46.307Z,33.70
2019-05-05T15:38:13.804Z,33.90
2019-05-05T15:40:44.679Z,33.50
2019-05-05T15:43:14.255Z,34.20
2019-05-05T15:45:43.439Z,35.00
2019-05-05T15:48:13.961Z,35.00
2019-05-05T15:50:43.914Z,34.80
2019-05-05T15:53:14.392Z,34.90
2019-05-05T15:55:43.262Z,34.30
2019-05-05T15:58:14.023Z,35.60
2019-05-05T16:00:44.204Z,36.40
2019-05-05T16:03:13.623Z,35.60
2019-05-05T16:05:43.611Z,35.70
2019-05-05T16:08:14.133Z,37.00
2019-05-05T16:10:44.019Z,37.30
2019-05-05T16:13:13.965Z,36.00
2019-05-05T16:15:44.455Z,36.80
2019-05-05T16:18:20.595Z,37.90
2019-05-05T16:20:57.106Z,39.00
2019-05-05T16:23:27.515Z,39.40
2019-05-05T16:25:56.315Z,40.60
2019-05-05T16:28:26.885Z,42.20
2019-05-05T16:30:56.136Z,42.40
2019-05-05T16:33:25.077Z,43.70
2019-05-05T16:35:53.935Z,43.00
2019-05-05T16:38:24.047Z,43.60
2019-05-05T16:40:53.782Z,44.20
2019-05-05T16:43:24.723Z,44.10
2019-05-05T16:45:53.754Z,44.50
2019-05-05T16:48:25.730Z,44.40
2019-05-05T16:50:54.612Z,44.80
2019-05-05T16:53:36.424Z,45.00
2019-05-05T16:56:07.376Z,44.90
2019-05-05T16:58:36.296Z,45.80
2019-05-05T17:01:07.047Z,45.70
2019-05-05T17:04:07.693Z,46.30
2019-05-05T17:06:25.648Z,46.90
2019-05-05T17:08:54.386Z,46.20
2019-05-05T17:11:24.514Z,46.80
2019-05-05T17:13:55.224Z,46.90
2019-05-05T17:16:28.314Z,46.70
2019-05-05T17:18:58.973Z,46.50
2019-05-05T17:21:34.040Z,46.60
2019-05-05T17:24:02.710Z,46.80
2019-05-05T17:26:32.046Z,47.30
2019-05-05T17:29:01.053Z,47.80
2019-05-05T17:31:30.005Z,47.80
2019-05-05T17:33:58.769Z,48.00
2019-05-05T17:36:27.685Z,47.80
2019-05-05T17:38:56.616Z,48.40
2019-05-05T17:41:27.374Z,49.10
2019-05-05T17:44:01.075Z,49.30
2019-05-05T17:46:44.517Z,49.50
2019-05-05T17:49:33.674Z,49.20
2019-05-05T17:52:07.156Z,49.80
2019-05-05T17:54:37.798Z,49.80
2019-05-05T17:57:06.606Z,50.30
2019-05-05T17:59:35.447Z,50.20
2019-05-05T18:02:04.834Z,50.80
2019-05-05T18:04:33.898Z,49.70
2019-05-05T18:10:16.204Z,49.70
2019-05-05T18:12:58.516Z,49.80
2019-05-05T18:15:48.136Z,49.80
2019-05-05T18:18:15.653Z,50.10
2019-05-05T18:20:44.963Z,50.40
2019-05-05T18:23:14.054Z,50.90
2019-05-05T18:25:44.187Z,51.10
2019-05-05T18:28:19.445Z,50.80
2019-05-05T18:30:44.353Z,50.70
2019-05-05T18:33:13.725Z,51.40
2019-05-05T18:35:44.289Z,51.00
2019-05-05T18:38:13.745Z,51.20
2019-05-05T18:40:43.422Z,51.40
2019-05-05T18:43:14.070Z,51.40
2019-05-05T18:45:44.170Z,51.80
2019-05-05T18:48:13.934Z,52.10
2019-05-05T18:50:42.913Z,52.50
2019-05-05T18:53:11.732Z,52.70
2019-05-05T18:55:40.570Z,53.00
2019-05-05T18:58:09.551Z,53.10
2019-05-05T19:00:49.356Z,53.30
2019-05-05T19:03:20.788Z,53.30
2019-05-05T19:05:57.347Z,53.80
2019-05-05T19:08:27.837Z,53.90
2019-05-05T19:10:56.661Z,54.00
2019-05-05T19:13:25.411Z,54.30
2019-05-05T19:15:54.435Z,54.60
2019-05-05T19:18:24.497Z,54.50
2019-05-05T19:21:03.493Z,55.10
2019-05-05T19:23:33.793Z,55.10
2019-05-05T19:26:04.247Z,55.00
2019-05-05T19:28:43.813Z,56.00
2019-05-05T19:31:04.301Z,55.90
2019-05-05T19:33:34.050Z,55.40
2019-05-05T19:36:04.864Z,54.60
2019-05-05T19:38:34.550Z,55.30
2019-05-05T19:41:03.983Z,55.50
2019-05-05T19:43:34.004Z,55.40
2019-05-05T19:46:04.251Z,55.70
2019-05-05T19:48:33.990Z,55.80
2019-05-05T19:51:07.356Z,55.90
2019-05-05T19:53:36.199Z,56.70
2019-05-05T19:56:04.985Z,56.70
2019-05-05T19:58:36.350Z,56.70
2019-05-05T20:01:04.898Z,56.80
2019-05-05T20:03:35.184Z,57.00
2019-05-05T20:06:04.944Z,57.30
2019-05-05T20:08:40.913Z,57.50
2019-05-05T20:11:04.938Z,58.00
2019-05-05T20:16:17.774Z,58.20
2019-05-05T20:18:46.589Z,58.40
2019-05-05T20:21:15.403Z,58.70
2019-05-05T20:23:44.294Z,58.80
2019-05-05T20:26:14.514Z,59.10
2019-05-05T20:28:43.374Z,59.00
2019-05-05T20:31:14.123Z,59.40
2019-05-05T20:33:44.266Z,59.50
2019-05-05T20:36:14.807Z,59.60
2019-05-05T20:38:47.897Z,59.30
2019-05-05T20:41:18.561Z,59.60
2019-05-05T20:43:47.382Z,59.90
2019-05-05T20:46:16.179Z,60.00
2019-05-05T20:48:45.113Z,59.80
2019-05-05T20:51:13.979Z,59.80
2019-05-05T20:53:44.775Z,60.20
2019-05-05T20:56:14.941Z,60.30
2019-05-05T20:58:44.036Z,60.50
2019-05-05T21:01:14.044Z,60.70
2019-05-05T21:03:42.988Z,60.70
2019-05-05T21:06:13.666Z,61.00
2019-05-05T21:08:44.069Z,61.20
2019-05-05T21:11:14.055Z,61.40
2019-05-05T21:13:45.099Z,61.70
2019-05-05T21:16:14.278Z,61.60
2019-05-05T21:18:43.324Z,61.90
2019-05-05T21:21:13.952Z,62.00
2019-05-05T21:23:44.413Z,62.00
2019-05-05T21:26:14.802Z,62.10
2019-05-05T21:28:44.466Z,62.30
2019-05-05T21:31:14.486Z,62.40
2019-05-05T21:33:45.188Z,63.00
2019-05-05T21:36:14.812Z,62.90
2019-05-05T21:38:44.049Z,63.10
2019-05-05T21:41:13.841Z,63.20
2019-05-05T21:43:44.664Z,63.30
2019-05-05T21:46:13.198Z,63.50
2019-05-05T21:48:42.139Z,63.50
2019-05-05T21:51:18.859Z,63.70
2019-05-05T21:53:49.247Z,63.90
2019-05-05T21:56:19.614Z,63.80
2019-05-05T21:58:48.658Z,63.90
2019-05-05T22:01:18.362Z,64.10
2019-05-05T22:03:47.293Z,64.00
2019-05-05T22:06:16.238Z,64.90
2019-05-05T22:08:45.046Z,64.10
2019-05-05T22:11:14.687Z,64.20
2019-05-05T22:13:44.354Z,63.80
2019-05-05T22:16:13.680Z,63.80
2019-05-05T22:18:44.637Z,63.60
2019-05-05T22:21:23.654Z,63.70
2019-05-05T22:24:12.959Z,63.70
2019-05-05T22:26:40.982Z,63.90
2019-05-05T22:29:09.791Z,64.10
2019-05-05T22:31:38.908Z,64.30
2019-05-05T22:34:07.875Z,64.20
2019-05-05T22:36:36.680Z,64.20
2019-05-05T22:39:07.979Z,64.20
2019-05-05T22:41:37.097Z,64.70
2019-05-05T22:44:05.915Z,64.80
2019-05-05T22:46:34.850Z,64.60
2019-05-05T22:49:04.472Z,64.80
2019-05-05T22:51:33.777Z,64.80
2019-05-05T22:54:03.940Z,64.70
2019-05-05T22:56:33.761Z,64.80
2019-05-05T22:59:04.351Z,65.00
2019-05-05T23:01:33.317Z,65.40
2019-05-05T23:04:23.865Z,65.80
2019-05-05T23:06:56.265Z,65.90
2019-05-05T23:09:25.152Z,65.60
2019-05-05T23:11:54.592Z,66.10
2019-05-05T23:14:30.245Z,66.60
2019-05-05T23:17:20.807Z,67.00
2019-05-05T23:19:51.289Z,66.90
2019-05-05T23:22:27.506Z,67.10
2019-05-05T23:25:04.211Z,66.60
2019-05-05T23:27:49.297Z,67.60
2019-05-05T23:30:20.730Z,68.40
2019-05-05T23:32:49.661Z,68.50
2019-05-05T23:35:18.759Z,69.20
2019-05-05T23:37:48.068Z,69.00
2019-05-05T23:40:24.489Z,69.30
2019-05-05T23:42:54.049Z,69.40
2019-05-05T23:45:24.792Z,69.80
2019-05-05T23:47:54.464Z,69.80
2019-05-05T23:50:44.548Z,70.10
2019-05-05T23:53:13.877Z,69.90
2019-05-05T23:55:44.063Z,70.20
2019-05-05T23:58:14.417Z,70.40
